• Join FlightAware (Why Join?)
  • Login
  • US Flag 
11:05AM EDT


 

Airport Tracker/Info


-or-


 

Live Flight TrackerFlight Track Log ✈ FIV521 ✈ 18-Apr-2013 ✈ KBCT - KFMY

Flight Track Log - Related Links

Times and Time Zones

All times are in EDT time to prevent confusion due to time zone crossing. See the FIV521 flight status page for this flight to view local times or setup timezone preferences in your user account.

Time Position Orientation Groundspeed Altitude Reporting Facility
EDT Latitude Longitude Course Direction KTS MPH feet Rate Location/Type
05:21PM 26.4926 -80.4894 287° West  Level FlightAware Approximate
05:22PM 26.5131 -80.5559 290° West  Level FlightAware Approximate
05:22PM 26.5589 -80.4333 275° West 290 334 8,000  Level Miami Center
05:23PM 26.5351 -80.6219 290° West  Level FlightAware Approximate
05:23PM 26.5672 -80.5125 277° West 290 334 8,100  Level Miami Center
05:24PM 26.5576 -80.6877 292° West  Level FlightAware Approximate
05:24PM 26.5711 -80.6081 273° West 285 328 8,100  Level Miami Center
05:25PM 26.5814 -80.7529 292° West  Level FlightAware Approximate
05:25PM 26.5794 -80.6872 277° West 285 328 8,100  Level Miami Center
05:26PM 26.6051 -80.8182 292° West  Level FlightAware Approximate
05:26PM 26.5603 -80.7772 257° West 280 322 8,100  Level Miami Center
05:27PM 26.5314 -80.8458 245° Southwest 281 323 8,100  Level Miami Center
05:28PM 26.5286 -80.9431 268° West 281 323 8,100  Level Miami Center
05:29PM 26.5200 -81.0286 264° West 281 323 8,100 -120 Level Miami Center
05:30PM 26.5258 -81.1147 274° West 281 323 7,900 -840 Descending Miami Center
05:31PM 26.5339 -81.1939 277° West 281 323 6,500 -960 Descending Miami Center
05:32PM 26.5397 -81.2778 274° West 287 330 6,000 -600 Descending Miami Center
05:33PM 26.5494 -81.3733 277° West 281 323 5,300 -1,200 Descending Miami Center
05:34PM 26.5553 -81.4572 274° West 281 323 3,600 -1,200 Descending Miami Center
05:35PM 26.5506 -81.5383 266° West 270 311 3,000 -300 Descending Miami Center
05:36PM 26.5503 -81.6078 270° West 264 304 3,000  Level Miami Center
05:38PM 26.5658 -81.7429 277° West  Level FlightAware Approximate
05:45PM 26.5833 -81.8500 283° West  Level FlightAware Approximate
05:46PM 26.5866 -81.8633 283° West  Level Estimated
05:47PM 26.5866 -81.8633 283° West  Level Estimated
05:48PM 26.5866 -81.8633 283° West  Level Estimated
05:49PM 26.5866 -81.8633 283° West  Level Estimated
05:50PM 26.5866 -81.8633 283° West  Level Estimated
05:51PM 26.5866 -81.8633 283° West  Level Estimated
05:52PM 26.5866 -81.8633 283° West  Level Estimated
05:53PM 26.5866 -81.8633 283° West  Level Estimated
05:54PM 26.5866 -81.8633 283° West  Level Estimated